createdAt,value
2019-03-03T00:00:47.440Z,100298.30
2019-03-03T00:03:17.272Z,100296.73
2019-03-03T00:05:45.765Z,100294.13
2019-03-03T00:08:14.328Z,100290.55
2019-03-03T00:10:42.871Z,100296.23
2019-03-03T00:13:11.442Z,100289.28
2019-03-03T00:15:40.008Z,100294.51
2019-03-03T00:18:08.479Z,100292.81
2019-03-03T00:20:36.952Z,100294.05
2019-03-03T00:23:05.411Z,100293.88
2019-03-03T00:25:34.035Z,100295.39
2019-03-03T00:28:02.640Z,100295.55
2019-03-03T00:31:31.880Z,100293.61
2019-03-03T00:34:00.432Z,100294.83
2019-03-03T00:36:30.565Z,100292.27
2019-03-03T00:42:00.330Z,100288.05
2019-03-03T00:44:33.212Z,100285.70
2019-03-03T00:47:12.383Z,100280.42
2019-03-03T00:50:01.683Z,100283.25
2019-03-03T00:52:31.815Z,100274.06
2019-03-03T00:55:18.268Z,100271.66
2019-03-03T00:57:51.331Z,100263.94
2019-03-03T01:00:39.623Z,100260.73
2019-03-03T01:03:12.735Z,100138.78
2019-03-03T01:05:42.939Z,100259.94
2019-03-03T01:08:15.895Z,100247.11
2019-03-03T01:10:49.006Z,100247.45
2019-03-03T01:13:19.390Z,100237.69
2019-03-03T01:16:06.022Z,100230.86
2019-03-03T01:18:41.981Z,100229.14
2019-03-03T01:21:12.101Z,100226.68
2019-03-03T01:23:58.115Z,100223.22
2019-03-03T01:26:26.656Z,100227.45
2019-03-03T01:28:55.170Z,100223.80
2019-03-03T01:31:23.629Z,100226.36
2019-03-03T01:33:52.189Z,100222.10
2019-03-03T01:36:20.636Z,100096.69
2019-03-03T01:38:49.150Z,100213.61
2019-03-03T01:41:17.646Z,100210.19
2019-03-03T01:43:46.118Z,100210.32
2019-03-03T01:46:14.671Z,100211.48
2019-03-03T01:48:43.157Z,100205.58
2019-03-03T01:51:11.655Z,100197.80
2019-03-03T01:53:40.313Z,100186.62
2019-03-03T01:56:08.790Z,100040.86
2019-03-03T01:58:37.280Z,100174.02
2019-03-03T02:01:05.838Z,100175.77
2019-03-03T02:03:35.568Z,100157.44
2019-03-03T02:06:06.054Z,100159.88
2019-03-03T02:08:34.681Z,100159.94
2019-03-03T02:11:03.320Z,100152.75
2019-03-03T02:13:31.808Z,100151.40
2019-03-03T02:16:00.426Z,100146.88
2019-03-03T02:18:28.921Z,100132.94
2019-03-03T02:20:57.415Z,100134.08
2019-03-03T02:23:25.917Z,100129.31
2019-03-03T02:25:54.458Z,100118.35
2019-03-03T02:28:22.933Z,100123.92
2019-03-03T02:30:51.512Z,100109.98
2019-03-03T02:33:20.062Z,100105.13
2019-03-03T02:35:48.639Z,100097.81
2019-03-03T02:38:17.137Z,100107.27
2019-03-03T02:40:45.650Z,100112.61
2019-03-03T02:43:14.211Z,100110.34
2019-03-03T02:45:42.771Z,100109.31
2019-03-03T02:48:11.240Z,100099.09
2019-03-03T02:50:39.719Z,100093.69
2019-03-03T02:53:08.200Z,100087.55
2019-03-03T02:55:36.699Z,100078.94
2019-03-03T02:58:05.317Z,100081.09
2019-03-03T03:00:35.604Z,100076.23
2019-03-03T03:03:16.258Z,100072.64
2019-03-03T03:05:58.268Z,100071.09
2019-03-03T03:08:28.555Z,100068.28
2019-03-03T03:11:02.143Z,100062.96
2019-03-03T03:13:48.471Z,100055.70
2019-03-03T03:16:18.613Z,100052.55
2019-03-03T03:18:58.012Z,100050.06
2019-03-03T03:21:33.954Z,100043.73
2019-03-03T03:24:20.834Z,100043.73
2019-03-03T03:27:07.286Z,100039.91
2019-03-03T03:29:49.592Z,100023.52
2019-03-03T03:32:19.760Z,100041.05
2019-03-03T03:34:58.688Z,100035.68
2019-03-03T03:37:40.787Z,100027.16
2019-03-03T03:40:12.331Z,100026.00
2019-03-03T03:42:58.681Z,100019.61
2019-03-03T03:45:44.986Z,100024.36
2019-03-03T03:48:20.817Z,100018.22
2019-03-03T03:51:00.142Z,99999.30
2019-03-03T03:53:30.298Z,100003.39
2019-03-03T03:56:18.606Z,100003.63
2019-03-03T03:59:00.925Z,99997.62
2019-03-03T04:01:43.278Z,100006.10
2019-03-03T04:04:16.398Z,99994.22
2019-03-03T04:06:52.544Z,99993.23
2019-03-03T04:09:22.670Z,99994.92
2019-03-03T04:11:52.773Z,99981.48
2019-03-03T04:14:22.911Z,99978.36
2019-03-03T04:16:58.981Z,99970.39
2019-03-03T04:19:29.140Z,99960.59
2019-03-03T04:21:59.251Z,99966.00
2019-03-03T04:24:35.032Z,99958.38
2019-03-03T04:27:07.754Z,99959.80
2019-03-03T04:29:40.623Z,99952.39
2019-03-03T04:32:16.169Z,99958.13
2019-03-03T04:35:02.965Z,99944.92
2019-03-03T04:37:51.225Z,99945.77
2019-03-03T04:40:21.503Z,99941.35
2019-03-03T04:42:51.639Z,99933.45
2019-03-03T04:45:24.869Z,99931.23
2019-03-03T04:48:00.670Z,99782.95
2019-03-03T04:50:42.613Z,99924.14
2019-03-03T04:53:18.645Z,99924.84
2019-03-03T04:56:03.843Z,99922.13
2019-03-03T04:58:43.072Z,99918.08
2019-03-03T05:01:28.241Z,99912.02
2019-03-03T05:04:12.708Z,99906.97
2019-03-03T05:06:42.905Z,99917.28
2019-03-03T05:09:13.046Z,99908.36
2019-03-03T05:15:01.799Z,99904.48
2019-03-03T05:17:41.003Z,99910.70
2019-03-03T05:20:17.176Z,99904.23
2019-03-03T05:22:45.716Z,99894.87
2019-03-03T05:25:14.382Z,99902.59
2019-03-03T05:27:42.861Z,99896.84
2019-03-03T05:30:13.696Z,99887.45
2019-03-03T05:32:42.138Z,99886.80
2019-03-03T05:35:11.122Z,99890.78
2019-03-03T05:37:40.147Z,99882.56
2019-03-03T05:40:08.976Z,99878.91
2019-03-03T05:42:37.517Z,99881.87
2019-03-03T05:45:07.068Z,99881.78
2019-03-03T05:47:35.545Z,99877.04
2019-03-03T05:50:05.124Z,99872.94
2019-03-03T05:52:33.632Z,99873.93
2019-03-03T05:55:02.162Z,99870.16
2019-03-03T05:57:30.620Z,99865.78
2019-03-03T05:59:59.125Z,99858.98
2019-03-03T06:02:27.622Z,99862.34
2019-03-03T06:04:56.110Z,99861.94
2019-03-03T06:07:24.587Z,99863.61
2019-03-03T06:09:53.082Z,99865.25
2019-03-03T06:12:21.561Z,99867.25
2019-03-03T06:14:50.077Z,99869.25
2019-03-03T06:17:18.561Z,99872.61
2019-03-03T06:19:47.023Z,99867.54
2019-03-03T06:22:15.495Z,99870.75
2019-03-03T06:24:44.038Z,99869.77
2019-03-03T06:27:12.518Z,99865.48
2019-03-03T06:29:43.905Z,99869.44
2019-03-03T06:32:12.394Z,99860.49
2019-03-03T06:34:40.868Z,99863.66
2019-03-03T06:37:09.357Z,99866.05
2019-03-03T06:39:37.819Z,99860.49
2019-03-03T06:42:06.301Z,99870.42
2019-03-03T06:44:34.775Z,99862.78
2019-03-03T06:47:03.313Z,99868.52
2019-03-03T06:49:31.764Z,99861.53
2019-03-03T06:52:00.279Z,99860.19
2019-03-03T06:54:28.753Z,99854.49
2019-03-03T06:56:57.227Z,99856.69
2019-03-03T06:59:25.812Z,99861.30
2019-03-03T07:01:54.290Z,99857.84
2019-03-03T07:04:22.817Z,99855.00
2019-03-03T07:06:51.263Z,99850.08
2019-03-03T07:09:19.739Z,99822.84
2019-03-03T07:11:48.211Z,99859.61
2019-03-03T07:14:16.684Z,99854.54
2019-03-03T07:16:45.198Z,99856.73
2019-03-03T07:19:13.656Z,99847.92
2019-03-03T07:21:42.254Z,99850.20
2019-03-03T07:24:10.747Z,99851.69
2019-03-03T07:26:40.875Z,99854.00
2019-03-03T07:29:09.381Z,99860.49
2019-03-03T07:31:37.835Z,99866.27
2019-03-03T07:34:06.707Z,99867.76
2019-03-03T07:36:35.173Z,99867.11
2019-03-03T07:39:05.182Z,99869.95
2019-03-03T07:41:33.643Z,99859.98
2019-03-03T07:44:02.129Z,99870.65
2019-03-03T07:46:30.601Z,99853.84
2019-03-03T07:48:59.158Z,99873.50
2019-03-03T07:51:27.626Z,99875.26
2019-03-03T07:53:56.086Z,99871.06
2019-03-03T07:56:24.571Z,99863.46
2019-03-03T07:58:53.053Z,99870.55
2019-03-03T08:01:21.541Z,99874.09
2019-03-03T08:03:50.008Z,99859.59
2019-03-03T08:06:18.499Z,99865.33
2019-03-03T08:08:47.437Z,99861.64
2019-03-03T08:11:15.992Z,99857.59
2019-03-03T08:13:44.458Z,99859.92
2019-03-03T08:16:12.938Z,99852.52
2019-03-03T08:18:41.396Z,99854.23
2019-03-03T08:21:09.866Z,99853.77
2019-03-03T08:23:38.335Z,99851.56
2019-03-03T08:26:06.829Z,99853.28
2019-03-03T08:28:35.373Z,99852.27
2019-03-03T08:31:03.879Z,99844.85
2019-03-03T08:33:32.425Z,99856.72
2019-03-03T08:36:00.915Z,99865.53
2019-03-03T08:38:29.373Z,99858.26
2019-03-03T08:40:57.943Z,99856.77
2019-03-03T08:43:28.072Z,99871.34
2019-03-03T08:45:58.214Z,99794.91
2019-03-03T08:48:28.387Z,99867.17
2019-03-03T08:50:58.506Z,99861.55
2019-03-03T08:53:31.360Z,99858.19
2019-03-03T08:56:04.040Z,99857.38
2019-03-03T08:58:34.289Z,99856.55
2019-03-03T09:01:04.377Z,99861.00
2019-03-03T09:03:37.160Z,99876.02
2019-03-03T09:06:07.299Z,99871.64
2019-03-03T09:08:49.138Z,99876.06
2019-03-03T09:11:25.248Z,99885.56
2019-03-03T09:13:58.118Z,99876.09
2019-03-03T09:16:31.257Z,99880.30
2019-03-03T09:22:12.433Z,99874.78
2019-03-03T09:24:48.433Z,99875.83
2019-03-03T09:27:24.815Z,99876.83
2019-03-03T09:30:09.906Z,99875.98
2019-03-03T09:32:42.251Z,99879.37
2019-03-03T09:35:12.583Z,99891.37
2019-03-03T09:37:48.898Z,99882.09
2019-03-03T09:40:19.120Z,99888.59
2019-03-03T09:42:49.288Z,99877.11
2019-03-03T09:45:19.551Z,99861.57
2019-03-03T09:47:58.620Z,99863.44
2019-03-03T09:51:00.426Z,99871.58
2019-03-03T09:53:35.984Z,99869.05
2019-03-03T09:56:21.277Z,99872.13
2019-03-03T09:58:51.383Z,99877.23
2019-03-03T10:04:36.537Z,99878.26
2019-03-03T10:07:09.763Z,99876.91
2019-03-03T10:09:48.819Z,99881.98
2019-03-03T10:12:19.081Z,99878.30
2019-03-03T10:14:57.977Z,99888.81
2019-03-03T10:17:28.206Z,99885.75
2019-03-03T10:20:07.136Z,99882.53
2019-03-03T10:22:45.745Z,99880.09
2019-03-03T10:25:24.896Z,99880.09
2019-03-03T10:28:11.260Z,99872.97
2019-03-03T10:30:44.445Z,99876.88
2019-03-03T10:33:14.633Z,99877.93
2019-03-03T10:35:47.873Z,99877.06
2019-03-03T10:38:21.034Z,99874.34
2019-03-03T10:41:03.461Z,99874.41
2019-03-03T10:43:48.359Z,99875.10
2019-03-03T10:46:24.566Z,99871.88
2019-03-03T10:48:54.737Z,99874.73
2019-03-03T10:51:24.970Z,99868.88
2019-03-03T10:54:12.167Z,99868.39
2019-03-03T10:56:45.030Z,99866.39
2019-03-03T10:59:15.203Z,99865.45
2019-03-03T11:01:48.329Z,99871.25
2019-03-03T11:04:18.492Z,99885.95
2019-03-03T11:06:48.761Z,99881.55
2019-03-03T11:09:20.906Z,99876.10
2019-03-03T11:11:59.699Z,99878.68
2019-03-03T11:14:41.869Z,99876.30
2019-03-03T11:17:24.171Z,99873.16
2019-03-03T11:19:54.382Z,99873.84
2019-03-03T11:22:27.844Z,99875.20
2019-03-03T11:25:03.659Z,99868.22
2019-03-03T11:27:49.255Z,99870.91
2019-03-03T11:30:37.492Z,99874.00
2019-03-03T11:33:07.050Z,99889.17
2019-03-03T11:35:49.274Z,99873.42
2019-03-03T11:38:28.362Z,99881.39
2019-03-03T11:41:04.524Z,99883.73
2019-03-03T11:43:50.068Z,99888.18
2019-03-03T11:46:36.318Z,99876.69
2019-03-03T11:49:09.329Z,99883.17
2019-03-03T11:51:39.448Z,99885.16
2019-03-03T11:54:24.625Z,99887.23
2019-03-03T11:56:56.994Z,99883.30
2019-03-03T11:59:30.149Z,99889.53
2019-03-03T12:02:01.007Z,99876.64
2019-03-03T12:07:32.598Z,99871.40
2019-03-03T12:10:06.804Z,99872.80
2019-03-03T12:12:53.344Z,99871.57
2019-03-03T12:15:23.711Z,99870.05
2019-03-03T12:17:59.910Z,99864.48
2019-03-03T12:20:35.530Z,99862.77
2019-03-03T12:23:20.634Z,99862.73
2019-03-03T12:25:52.701Z,99867.44
2019-03-03T12:28:34.968Z,99861.52
2019-03-03T12:31:07.570Z,99860.52
2019-03-03T12:33:41.574Z,99857.15
2019-03-03T12:36:12.171Z,99845.50
2019-03-03T12:38:54.371Z,99854.66
2019-03-03T12:41:33.295Z,99847.91
2019-03-03T12:44:03.484Z,99846.63
2019-03-03T12:46:33.658Z,99840.02
2019-03-03T12:49:10.159Z,99838.36
2019-03-03T12:51:52.274Z,99834.83
2019-03-03T12:54:38.282Z,99836.51
2019-03-03T12:57:14.733Z,99838.91
2019-03-03T12:59:44.852Z,99839.06
2019-03-03T13:02:27.314Z,99833.27
2019-03-03T13:05:00.094Z,99834.16
2019-03-03T13:07:48.689Z,99829.59
2019-03-03T13:10:30.894Z,99827.20
2019-03-03T13:13:10.317Z,99826.50
2019-03-03T13:15:49.501Z,99827.66
2019-03-03T13:18:19.699Z,99815.95
2019-03-03T13:20:49.809Z,99820.88
2019-03-03T13:23:40.966Z,99814.28
2019-03-03T13:26:22.800Z,99809.53
2019-03-03T13:29:01.761Z,99807.12
2019-03-03T13:31:48.031Z,99799.21
2019-03-03T13:34:18.190Z,99798.19
2019-03-03T13:36:54.293Z,99804.11
2019-03-03T13:39:30.335Z,99797.34
2019-03-03T13:42:18.353Z,99792.09
2019-03-03T13:44:47.949Z,99793.96
2019-03-03T13:47:16.418Z,99789.76
2019-03-03T13:49:45.037Z,99789.40
2019-03-03T13:52:13.781Z,99785.18
2019-03-03T13:54:42.399Z,99782.47
2019-03-03T13:57:11.081Z,99780.27
2019-03-03T13:59:39.577Z,99774.33
2019-03-03T14:02:08.402Z,99774.50
2019-03-03T14:04:36.958Z,99770.59
2019-03-03T14:07:06.183Z,99765.37
2019-03-03T14:09:34.629Z,99766.89
2019-03-03T14:12:03.249Z,99760.12
2019-03-03T14:14:31.774Z,99755.91
2019-03-03T14:17:00.273Z,99751.84
2019-03-03T14:19:28.731Z,99744.70
2019-03-03T14:21:57.418Z,99743.52
2019-03-03T14:24:27.264Z,99750.13
2019-03-03T14:26:55.721Z,99747.25
2019-03-03T14:29:24.267Z,99738.28
2019-03-03T14:31:52.802Z,99729.81
2019-03-03T14:34:23.350Z,99730.02
2019-03-03T14:36:51.973Z,99729.82
2019-03-03T14:39:20.529Z,99720.34
2019-03-03T14:41:51.408Z,99715.95
2019-03-03T14:44:19.905Z,99717.30
2019-03-03T14:46:48.435Z,99712.21
2019-03-03T14:49:21.263Z,99713.92
2019-03-03T14:51:50.311Z,99709.17
2019-03-03T14:54:25.399Z,99699.38
2019-03-03T14:56:53.962Z,99694.45
2019-03-03T14:59:22.451Z,99693.25
2019-03-03T15:01:54.867Z,99694.11
2019-03-03T15:04:24.041Z,99686.98
2019-03-03T15:06:52.587Z,99673.28
2019-03-03T15:09:22.017Z,99671.57
2019-03-03T15:11:50.645Z,99588.83
2019-03-03T15:14:21.601Z,99672.25
2019-03-03T15:16:51.672Z,99651.94
2019-03-03T15:19:20.290Z,99664.28
2019-03-03T15:21:52.769Z,99661.93
2019-03-03T15:24:21.239Z,99664.48
2019-03-03T15:26:49.763Z,99654.33
2019-03-03T15:29:18.215Z,99648.59
2019-03-03T15:31:46.798Z,99650.63
2019-03-03T15:34:15.248Z,99646.72
2019-03-03T15:36:44.429Z,99647.72
2019-03-03T15:39:15.593Z,99645.00
2019-03-03T15:41:44.069Z,99644.64
2019-03-03T15:44:12.619Z,99640.77
2019-03-03T15:46:41.257Z,99638.55
2019-03-03T15:49:09.777Z,99635.00
2019-03-03T15:51:40.828Z,99632.13
2019-03-03T15:54:09.362Z,99629.75
2019-03-03T15:56:37.898Z,99626.36
2019-03-03T15:59:06.355Z,99625.68
2019-03-03T16:01:40.664Z,99614.17
2019-03-03T16:04:11.466Z,99616.21
2019-03-03T16:06:39.920Z,99613.69
2019-03-03T16:09:13.217Z,99606.25
2019-03-03T16:11:41.686Z,99606.72
2019-03-03T16:14:10.163Z,99604.53
2019-03-03T16:16:45.033Z,99593.19
2019-03-03T16:19:21.266Z,99594.73
2019-03-03T16:21:49.898Z,99591.51
2019-03-03T16:24:18.356Z,99588.45
2019-03-03T16:26:47.355Z,99587.93
2019-03-03T16:29:15.880Z,99582.70
2019-03-03T16:31:45.908Z,99583.19
2019-03-03T16:34:19.516Z,99575.42
2019-03-03T16:36:49.494Z,99568.97
2019-03-03T16:39:17.984Z,99570.17
2019-03-03T16:41:46.672Z,99571.36
2019-03-03T16:44:18.465Z,99563.39
2019-03-03T16:46:46.936Z,99563.23
2019-03-03T16:49:17.288Z,99557.66
2019-03-03T16:51:48.266Z,99564.07
2019-03-03T16:54:16.812Z,99555.95
2019-03-03T16:56:45.297Z,99554.62
2019-03-03T16:59:13.790Z,99551.20
2019-03-03T17:01:42.375Z,99549.17
2019-03-03T17:04:17.511Z,99550.05
2019-03-03T17:06:46.050Z,99556.82
2019-03-03T17:09:15.032Z,99549.53
2019-03-03T17:11:43.594Z,99545.98
2019-03-03T17:14:12.179Z,99541.41
2019-03-03T17:16:40.780Z,99540.22
2019-03-03T17:19:09.670Z,99537.34
2019-03-03T17:21:38.140Z,99533.44
2019-03-03T17:24:06.692Z,99533.44
2019-03-03T17:26:36.799Z,99525.83
2019-03-03T17:29:08.372Z,99520.58
2019-03-03T17:31:39.978Z,99521.09
2019-03-03T17:34:13.205Z,99520.24
2019-03-03T17:36:38.706Z,99516.86
2019-03-03T17:39:08.221Z,99522.61
2019-03-03T17:41:37.249Z,99507.71
2019-03-03T17:44:05.857Z,99500.61
2019-03-03T17:46:34.349Z,99511.79
2019-03-03T17:49:02.841Z,99505.70
2019-03-03T17:51:31.416Z,99506.87
2019-03-03T17:53:59.948Z,99500.09
2019-03-03T17:56:30.873Z,99507.39
2019-03-03T17:58:59.352Z,99495.55
2019-03-03T18:01:29.593Z,99494.00
2019-03-03T18:03:58.210Z,99501.61
2019-03-03T18:06:26.705Z,99494.66
2019-03-03T18:08:55.187Z,99493.82
2019-03-03T18:11:23.768Z,99455.41
2019-03-03T18:13:52.228Z,99491.63
2019-03-03T18:16:20.774Z,99485.55
2019-03-03T18:18:49.513Z,99478.62
2019-03-03T18:21:18.015Z,99470.14
2019-03-03T18:23:46.463Z,99477.08
2019-03-03T18:26:18.496Z,99470.64
2019-03-03T18:28:51.073Z,99471.84
2019-03-03T18:31:19.625Z,99465.72
2019-03-03T18:33:48.108Z,99471.66
2019-03-03T18:36:16.667Z,99459.30
2019-03-03T18:38:45.136Z,99462.18
2019-03-03T18:41:13.672Z,99456.42
2019-03-03T18:43:44.542Z,99454.72
2019-03-03T18:46:13.006Z,99457.43
2019-03-03T18:48:41.773Z,99442.20
2019-03-03T18:51:11.581Z,99442.53
2019-03-03T18:53:40.054Z,99445.92
2019-03-03T18:56:08.540Z,99441.69
2019-03-03T18:58:37.029Z,99440.36
2019-03-03T19:01:06.396Z,99444.57
2019-03-03T19:03:39.105Z,99431.71
2019-03-03T19:06:09.506Z,99427.49
2019-03-03T19:08:38.064Z,99424.42
2019-03-03T19:11:07.871Z,99432.74
2019-03-03T19:13:37.636Z,99424.62
2019-03-03T19:16:06.213Z,99426.09
2019-03-03T19:18:34.505Z,99429.34
2019-03-03T19:21:02.977Z,99415.98
2019-03-03T19:23:31.605Z,99420.19
2019-03-03T19:26:00.077Z,99419.00
2019-03-03T19:28:28.635Z,99420.03
2019-03-03T19:30:57.288Z,99408.84
2019-03-03T19:33:40.675Z,99412.06
2019-03-03T19:36:09.244Z,99408.36
2019-03-03T19:38:40.481Z,99350.20
2019-03-03T19:41:12.055Z,99408.19
2019-03-03T19:43:40.689Z,99414.63
2019-03-03T19:46:10.936Z,99394.33
2019-03-03T19:48:39.596Z,99390.75
2019-03-03T19:51:14.781Z,99400.06
2019-03-03T19:53:43.344Z,99398.54
2019-03-03T19:56:13.452Z,99401.41
2019-03-03T19:58:42.117Z,99387.86
2019-03-03T20:01:10.841Z,99396.52
2019-03-03T20:03:39.409Z,99390.41
2019-03-03T20:06:07.961Z,99392.09
2019-03-03T20:08:36.428Z,99383.82
2019-03-03T20:11:08.157Z,99379.93
2019-03-03T20:13:36.713Z,99382.45
2019-03-03T20:16:05.306Z,99378.55
2019-03-03T20:18:34.009Z,99378.23
2019-03-03T20:21:02.631Z,99386.34
2019-03-03T20:23:31.223Z,99378.74
2019-03-03T20:26:00.116Z,99383.99
2019-03-03T20:28:28.659Z,99380.75
2019-03-03T20:30:57.478Z,99369.94
2019-03-03T20:33:25.980Z,99374.16
2019-03-03T20:35:54.466Z,99377.03
2019-03-03T20:38:23.019Z,99369.59
2019-03-03T20:40:51.483Z,99371.44
2019-03-03T20:43:20.040Z,99351.66
2019-03-03T20:45:53.284Z,99367.41
2019-03-03T20:48:21.918Z,99361.16
2019-03-03T20:50:50.799Z,99365.88
2019-03-03T20:53:22.360Z,99358.75
2019-03-03T20:55:50.828Z,99350.32
2019-03-03T20:58:21.901Z,99358.61
2019-03-03T21:00:51.703Z,99353.01
2019-03-03T21:03:21.716Z,99346.76
2019-03-03T21:05:50.605Z,99343.38
2019-03-03T21:08:19.185Z,99340.51
2019-03-03T21:10:47.972Z,99334.73
2019-03-03T21:13:16.525Z,99262.77
2019-03-03T21:15:45.063Z,99327.80
2019-03-03T21:18:13.606Z,99316.64
2019-03-03T21:20:42.298Z,99323.59
2019-03-03T21:23:12.259Z,99308.71
2019-03-03T21:25:43.441Z,99304.30
2019-03-03T21:28:14.135Z,99305.50
2019-03-03T21:30:42.615Z,99302.96
2019-03-03T21:33:12.799Z,99299.89
2019-03-03T21:35:41.351Z,99289.11
2019-03-03T21:38:09.883Z,99292.98
2019-03-03T21:40:38.441Z,99283.35
2019-03-03T21:43:07.255Z,99280.28
2019-03-03T21:45:37.454Z,99277.26
2019-03-03T21:48:05.986Z,99269.28
2019-03-03T21:51:12.416Z,99261.86
2019-03-03T21:53:40.943Z,99266.08
2019-03-03T21:56:09.438Z,99258.64
2019-03-03T21:58:37.922Z,99247.81
2019-03-03T22:01:07.854Z,99250.03
2019-03-03T22:03:36.675Z,99251.38
2019-03-03T22:06:05.305Z,99243.27
2019-03-03T22:08:33.778Z,99242.95
2019-03-03T22:11:05.499Z,99249.20
2019-03-03T22:13:34.030Z,99243.27
2019-03-03T22:16:02.521Z,99247.81
2019-03-03T22:18:31.030Z,99237.33
2019-03-03T22:20:59.579Z,99224.30
2019-03-03T22:23:28.059Z,99221.30
2019-03-03T22:25:56.546Z,99215.03
2019-03-03T22:28:25.002Z,99229.22
2019-03-03T22:30:53.698Z,99223.45
2019-03-03T22:33:22.179Z,99217.22
2019-03-03T22:35:50.662Z,99220.61
2019-03-03T22:38:22.305Z,99231.22
2019-03-03T22:40:50.783Z,99224.59
2019-03-03T22:43:19.280Z,99223.97
2019-03-03T22:45:47.759Z,99217.34
2019-03-03T22:48:19.402Z,99210.57
2019-03-03T22:50:48.272Z,99205.44
2019-03-03T22:53:16.822Z,99204.64
2019-03-03T22:55:45.299Z,99205.19
2019-03-03T22:58:13.835Z,99192.27
2019-03-03T23:01:00.644Z,99188.62
2019-03-03T23:03:34.886Z,99196.73
2019-03-03T23:06:06.432Z,99194.06
2019-03-03T23:08:46.578Z,99190.95
2019-03-03T23:11:36.312Z,99184.64
2019-03-03T23:14:37.720Z,99178.29
2019-03-03T23:17:24.371Z,99174.43
2019-03-03T23:20:29.964Z,99165.14
2019-03-03T23:23:31.725Z,99162.92
2019-03-03T23:26:04.849Z,99158.86
2019-03-03T23:28:33.342Z,99145.31
2019-03-03T23:31:01.810Z,99135.45
2019-03-03T23:33:30.315Z,99155.97
2019-03-03T23:35:58.775Z,99140.91
2019-03-03T23:38:27.450Z,99146.63
2019-03-03T23:40:56.112Z,99130.70
2019-03-03T23:43:24.602Z,99139.66
2019-03-03T23:45:54.608Z,99129.38
2019-03-03T23:48:23.088Z,99129.72
2019-03-03T23:50:51.570Z,99125.14
2019-03-03T23:53:20.077Z,99126.34
2019-03-03T23:55:48.615Z,99112.98
2019-03-03T23:58:17.175Z,99121.08
